createdAt,value
2023-10-10T00:00:29.288Z,21.57
2023-10-10T00:05:41.731Z,21.49
2023-10-10T00:10:52.339Z,21.38
2023-10-10T00:15:58.556Z,21.47
2023-10-10T00:21:09.912Z,21.73
2023-10-10T00:26:16.700Z,21.60
2023-10-10T00:31:20.100Z,21.42
2023-10-10T00:36:32.611Z,21.27
2023-10-10T00:41:53.447Z,21.13
2023-10-10T00:46:59.085Z,21.00
2023-10-10T00:52:08.069Z,21.01
2023-10-10T00:57:15.236Z,21.07
2023-10-10T01:02:22.173Z,21.14
2023-10-10T01:07:28.152Z,21.01
2023-10-10T01:12:36.813Z,20.93
2023-10-10T01:17:40.676Z,20.82
2023-10-10T01:22:49.153Z,20.67
2023-10-10T01:27:55.808Z,20.65
2023-10-10T01:33:02.184Z,20.63
2023-10-10T01:38:15.220Z,20.59
2023-10-10T01:43:18.500Z,20.65
2023-10-10T01:48:26.574Z,20.82
2023-10-10T01:53:32.271Z,20.95
2023-10-10T01:58:37.937Z,21.15
2023-10-10T02:03:42.977Z,21.23
2023-10-10T02:09:15.257Z,21.32
2023-10-10T02:14:16.484Z,21.41
2023-10-10T02:19:26.933Z,21.25
2023-10-10T02:24:50.152Z,21.01
2023-10-10T02:29:54.771Z,20.78
2023-10-10T02:35:16.768Z,20.81
2023-10-10T02:40:32.215Z,20.70
2023-10-10T02:45:37.105Z,20.88
2023-10-10T02:50:43.021Z,21.08
2023-10-10T02:55:53.267Z,21.16
2023-10-10T03:00:58.956Z,20.88
2023-10-10T03:06:07.760Z,20.58
2023-10-10T03:11:36.755Z,20.47
2023-10-10T03:17:00.913Z,20.41
2023-10-10T03:22:19.544Z,20.74
2023-10-10T03:27:40.215Z,20.99
2023-10-10T03:33:01.050Z,20.87
2023-10-10T03:38:29.545Z,21.09
2023-10-10T03:44:00.259Z,21.12
2023-10-10T03:49:21.104Z,21.13
2023-10-10T03:54:38.096Z,21.20
2023-10-10T04:00:00.329Z,21.17
2023-10-10T04:05:27.047Z,21.16
2023-10-10T04:10:49.003Z,21.14
2023-10-10T04:16:11.096Z,21.12
2023-10-10T04:21:32.238Z,21.16
2023-10-10T04:26:52.691Z,21.09
2023-10-10T04:32:14.900Z,21.02
2023-10-10T04:37:37.429Z,20.99
2023-10-10T04:43:04.102Z,20.98
2023-10-10T04:48:26.382Z,20.90
2023-10-10T04:53:52.352Z,20.94
2023-10-10T04:59:14.048Z,20.91
2023-10-10T05:04:36.143Z,20.79
2023-10-10T05:09:56.617Z,20.66
2023-10-10T05:15:17.034Z,20.73
2023-10-10T05:20:41.784Z,20.74
2023-10-10T05:25:46.590Z,20.68
2023-10-10T05:30:49.791Z,20.65
2023-10-10T05:35:59.817Z,20.61
2023-10-10T05:41:04.398Z,20.55
2023-10-10T05:46:07.757Z,20.41
2023-10-10T05:51:14.543Z,20.34
2023-10-10T05:56:18.899Z,20.47
2023-10-10T06:01:25.068Z,20.35
2023-10-10T06:06:30.328Z,20.39
2023-10-10T06:11:36.126Z,20.34
2023-10-10T06:16:39.806Z,20.28
2023-10-10T06:21:45.522Z,20.22
2023-10-10T06:26:50.786Z,20.28
2023-10-10T06:31:53.971Z,20.27
2023-10-10T06:37:00.447Z,20.35
2023-10-10T06:42:05.314Z,20.30
2023-10-10T06:47:12.989Z,20.29
2023-10-10T06:52:20.464Z,20.28
2023-10-10T06:57:37.606Z,20.39
2023-10-10T07:02:42.892Z,20.44
2023-10-10T07:07:56.206Z,20.46
2023-10-10T07:13:02.444Z,20.54
2023-10-10T07:18:15.598Z,20.53
2023-10-10T07:23:22.104Z,20.63
2023-10-10T07:28:27.410Z,20.72
2023-10-10T07:33:41.894Z,21.66
2023-10-10T07:38:46.368Z,22.53
2023-10-10T07:43:54.050Z,23.12
2023-10-10T07:49:01.427Z,23.61
2023-10-10T07:54:14.034Z,24.17
2023-10-10T07:59:18.876Z,24.73
2023-10-10T08:04:23.751Z,25.56
2023-10-10T08:09:31.218Z,25.74
2023-10-10T08:14:38.924Z,26.48
2023-10-10T08:19:44.759Z,26.64
2023-10-10T08:24:49.353Z,27.09
2023-10-10T08:29:54.880Z,27.71
2023-10-10T08:35:06.054Z,28.00
2023-10-10T08:40:21.205Z,28.46
2023-10-10T08:45:27.797Z,28.57
2023-10-10T08:50:33.982Z,28.58
2023-10-10T08:55:42.414Z,27.73
2023-10-10T09:00:49.369Z,26.73
2023-10-10T09:05:53.250Z,26.26
2023-10-10T09:11:02.418Z,26.27
2023-10-10T09:16:16.594Z,26.12
2023-10-10T09:21:25.724Z,27.32
2023-10-10T09:26:38.244Z,29.82
2023-10-10T09:31:46.993Z,31.51
2023-10-10T09:37:03.672Z,32.60
2023-10-10T09:42:30.166Z,32.43
2023-10-10T09:47:45.388Z,32.37
2023-10-10T09:52:51.711Z,32.27
2023-10-10T09:58:09.750Z,32.11
2023-10-10T10:03:33.454Z,32.82
2023-10-10T10:08:46.267Z,31.93
2023-10-10T10:14:12.525Z,31.78
2023-10-10T10:19:29.388Z,32.69
2023-10-10T10:24:54.044Z,32.22
2023-10-10T10:30:09.972Z,32.30
2023-10-10T10:35:16.964Z,32.47
2023-10-10T10:40:26.441Z,32.51
2023-10-10T10:45:36.619Z,32.51
2023-10-10T10:50:47.039Z,32.39
2023-10-10T10:56:07.993Z,32.81
2023-10-10T11:01:18.106Z,33.04
2023-10-10T11:06:21.747Z,33.11
2023-10-10T11:11:28.176Z,33.60
2023-10-10T11:16:57.796Z,33.55
2023-10-10T11:22:06.801Z,33.96
2023-10-10T11:27:16.738Z,33.68
2023-10-10T11:32:30.921Z,33.83
2023-10-10T11:37:36.140Z,33.66
2023-10-10T11:42:39.448Z,35.02
2023-10-10T11:47:57.733Z,35.03
2023-10-10T11:53:02.526Z,35.53
2023-10-10T11:58:09.454Z,34.75
2023-10-10T12:03:21.846Z,35.85
2023-10-10T12:08:26.261Z,35.84
2023-10-10T12:13:39.177Z,36.29
2023-10-10T12:18:52.813Z,36.64
2023-10-10T12:24:10.750Z,36.10
2023-10-10T12:29:44.115Z,36.67
2023-10-10T12:35:01.155Z,36.14
2023-10-10T12:40:34.119Z,36.42
2023-10-10T12:45:55.840Z,36.48
2023-10-10T12:51:29.490Z,36.38
2023-10-10T12:59:25.879Z,36.69
2023-10-10T13:14:21.207Z,37.58
2023-10-10T13:19:54.937Z,36.98
2023-10-10T13:25:34.314Z,37.30
2023-10-10T13:36:47.303Z,37.49
2023-10-10T13:47:33.407Z,37.96
2023-10-10T13:52:40.762Z,37.92
2023-10-10T13:58:01.818Z,37.89
2023-10-10T14:03:47.073Z,37.88
2023-10-10T14:09:47.945Z,37.67
2023-10-10T14:15:40.321Z,37.72
2023-10-10T14:21:15.468Z,38.82
2023-10-10T14:26:56.865Z,37.95
2023-10-10T14:32:35.124Z,37.46
2023-10-10T14:38:36.228Z,37.86
2023-10-10T14:43:57.404Z,37.77
2023-10-10T14:49:31.020Z,38.65
2023-10-10T14:55:00.396Z,37.84
2023-10-10T15:00:24.006Z,37.66
2023-10-10T15:05:40.615Z,37.17
2023-10-10T15:10:50.420Z,37.55
2023-10-10T15:16:14.137Z,37.08
2023-10-10T15:21:35.876Z,36.47
2023-10-10T15:26:49.846Z,36.11
2023-10-10T15:32:07.108Z,35.31
2023-10-10T15:37:24.785Z,35.60
2023-10-10T15:42:40.322Z,35.81
2023-10-10T15:47:56.601Z,34.51
2023-10-10T15:53:07.220Z,34.95
2023-10-10T15:58:30.792Z,35.51
2023-10-10T16:03:43.974Z,35.39
2023-10-10T16:09:10.102Z,35.11
2023-10-10T16:14:22.087Z,34.46
2023-10-10T16:19:40.203Z,34.46
2023-10-10T16:24:53.931Z,33.98
2023-10-10T16:30:07.119Z,33.38
2023-10-10T16:35:16.691Z,33.00
2023-10-10T16:40:24.721Z,32.71
2023-10-10T16:45:37.359Z,32.36
2023-10-10T16:50:44.479Z,31.95
2023-10-10T16:55:49.873Z,31.46
2023-10-10T17:00:54.755Z,30.86
2023-10-10T17:06:01.967Z,30.47
2023-10-10T17:11:12.341Z,30.28
2023-10-10T17:16:26.934Z,30.13
2023-10-10T17:21:38.167Z,30.00
2023-10-10T17:26:45.335Z,29.91
2023-10-10T17:31:57.190Z,29.88
2023-10-10T17:37:03.189Z,29.69
2023-10-10T17:42:12.473Z,29.42
2023-10-10T17:47:22.108Z,29.29
2023-10-10T17:52:34.499Z,29.12
2023-10-10T17:57:41.943Z,28.87
2023-10-10T18:02:57.478Z,28.74
2023-10-10T18:08:02.330Z,28.47
2023-10-10T18:13:06.714Z,28.38
2023-10-10T18:18:14.305Z,28.16
2023-10-10T18:23:22.563Z,28.16
2023-10-10T18:28:31.250Z,27.94
2023-10-10T18:33:41.537Z,27.75
2023-10-10T18:38:46.856Z,27.63
2023-10-10T18:43:51.637Z,27.44
2023-10-10T18:48:58.672Z,27.34
2023-10-10T18:54:09.615Z,27.09
2023-10-10T18:59:15.080Z,26.95
2023-10-10T19:04:23.051Z,26.93
2023-10-10T19:09:30.900Z,26.73
2023-10-10T19:14:47.450Z,26.65
2023-10-10T19:19:54.558Z,26.60
2023-10-10T19:24:59.175Z,26.55
2023-10-10T19:30:05.601Z,26.70
2023-10-10T19:35:15.415Z,26.44
2023-10-10T19:40:21.953Z,26.19
2023-10-10T19:45:27.758Z,26.18
2023-10-10T19:50:32.918Z,26.01
2023-10-10T19:55:38.711Z,25.88
2023-10-10T20:00:47.063Z,25.93
2023-10-10T20:05:54.346Z,25.95
2023-10-10T20:10:58.469Z,25.65
2023-10-10T20:16:04.403Z,25.61
2023-10-10T20:21:09.042Z,25.58
2023-10-10T20:26:18.440Z,25.39
2023-10-10T20:31:23.476Z,25.18
2023-10-10T20:36:28.197Z,25.22
2023-10-10T20:41:33.966Z,25.25
2023-10-10T20:46:37.894Z,24.74
2023-10-10T20:51:44.550Z,24.99
2023-10-10T20:56:50.086Z,25.12
2023-10-10T21:01:53.658Z,24.67
2023-10-10T21:07:00.703Z,24.59
2023-10-10T21:12:08.535Z,24.42
2023-10-10T21:17:13.611Z,24.32
2023-10-10T21:22:21.670Z,24.02
2023-10-10T21:27:25.114Z,24.24
2023-10-10T21:32:28.373Z,24.28
2023-10-10T21:37:32.956Z,24.30
2023-10-10T21:42:36.140Z,24.20
2023-10-10T21:47:40.890Z,24.26
2023-10-10T21:52:47.165Z,24.00
2023-10-10T21:57:53.107Z,24.01
2023-10-10T22:02:56.389Z,23.80
2023-10-10T22:08:01.869Z,23.79
2023-10-10T22:13:05.649Z,23.71
2023-10-10T22:18:09.100Z,23.45
2023-10-10T22:23:20.351Z,23.15
2023-10-10T22:28:23.520Z,22.88
2023-10-10T22:33:26.782Z,23.23
2023-10-10T22:38:32.679Z,23.13
2023-10-10T22:43:37.933Z,23.07
2023-10-10T22:48:41.316Z,22.87
2023-10-10T22:53:47.867Z,22.61
2023-10-10T22:58:51.249Z,22.52
2023-10-10T23:03:54.605Z,22.25
2023-10-10T23:09:00.051Z,22.18
2023-10-10T23:14:06.345Z,22.10
2023-10-10T23:19:10.373Z,21.98
2023-10-10T23:24:18.200Z,22.02
2023-10-10T23:29:21.718Z,22.20
2023-10-10T23:34:25.548Z,21.93
2023-10-10T23:39:34.980Z,22.02
2023-10-10T23:44:43.610Z,22.16
2023-10-10T23:49:52.097Z,22.20
2023-10-10T23:54:57.241Z,21.77
